sensor_id;sensor_type;location;lat;lon;timestamp;temperature;humidity
8591;DHT22;4333;48.322;14.340;2023-03-26T00:00:40;5.30;99.90
8591;DHT22;4333;48.322;14.340;2023-03-26T00:03:09;5.60;99.90
8591;DHT22;4333;48.322;14.340;2023-03-26T00:05:39;5.80;99.90
8591;DHT22;4333;48.322;14.340;2023-03-26T00:08:06;5.70;99.90
8591;DHT22;4333;48.322;14.340;2023-03-26T00:10:36;5.90;99.90
8591;DHT22;4333;48.322;14.340;2023-03-26T00:13:04;5.90;99.90
8591;DHT22;4333;48.322;14.340;2023-03-26T00:15:30;5.90;99.90
8591;DHT22;4333;48.322;14.340;2023-03-26T00:17:56;6.00;99.90
8591;DHT22;4333;48.322;14.340;2023-03-26T00:20:25;6.10;99.90
8591;DHT22;4333;48.322;14.340;2023-03-26T00:22:52;6.10;99.90
8591;DHT22;4333;48.322;14.340;2023-03-26T00:25:22;6.20;99.90
8591;DHT22;4333;48.322;14.340;2023-03-26T00:27:50;6.30;99.90
8591;DHT22;4333;48.322;14.340;2023-03-26T00:30:17;6.60;99.90
8591;DHT22;4333;48.322;14.340;2023-03-26T00:32:43;6.70;99.90
8591;DHT22;4333;48.322;14.340;2023-03-26T00:35:09;6.70;99.90
8591;DHT22;4333;48.322;14.340;2023-03-26T00:37:35;6.80;99.90
8591;DHT22;4333;48.322;14.340;2023-03-26T00:40:01;6.90;99.90
8591;DHT22;4333;48.322;14.340;2023-03-26T00:42:32;7.10;99.90
8591;DHT22;4333;48.322;14.340;2023-03-26T00:44:58;7.00;99.90
8591;DHT22;4333;48.322;14.340;2023-03-26T00:47:24;7.00;99.90
8591;DHT22;4333;48.322;14.340;2023-03-26T00:49:50;6.90;99.90
8591;DHT22;4333;48.322;14.340;2023-03-26T00:52:16;6.90;99.90
8591;DHT22;4333;48.322;14.340;2023-03-26T00:54:54;6.80;99.90
8591;DHT22;4333;48.322;14.340;2023-03-26T00:57:20;6.90;99.90
8591;DHT22;4333;48.322;14.340;2023-03-26T00:59:48;7.10;99.90
8591;DHT22;4333;48.322;14.340;2023-03-26T01:02:18;7.30;99.90
8591;DHT22;4333;48.322;14.340;2023-03-26T01:04:55;7.50;99.90
8591;DHT22;4333;48.322;14.340;2023-03-26T01:07:24;7.50;99.90
8591;DHT22;4333;48.322;14.340;2023-03-26T01:09:56;7.60;99.90
8591;DHT22;4333;48.322;14.340;2023-03-26T01:12:27;7.80;98.60
8591;DHT22;4333;48.322;14.340;2023-03-26T01:14:58;7.90;96.00
8591;DHT22;4333;48.322;14.340;2023-03-26T01:17:28;8.00;94.00
8591;DHT22;4333;48.322;14.340;2023-03-26T01:20:21;8.10;92.70
8591;DHT22;4333;48.322;14.340;2023-03-26T01:22:54;8.20;91.30
8591;DHT22;4333;48.322;14.340;2023-03-26T01:25:29;8.20;91.40
8591;DHT22;4333;48.322;14.340;2023-03-26T01:27:58;8.10;92.70
8591;DHT22;4333;48.322;14.340;2023-03-26T01:41:13;8.40;83.40
8591;DHT22;4333;48.322;14.340;2023-03-26T01:43:46;8.30;83.40
8591;DHT22;4333;48.322;14.340;2023-03-26T01:46:19;8.40;84.00
8591;DHT22;4333;48.322;14.340;2023-03-26T01:48:46;8.40;83.90
8591;DHT22;4333;48.322;14.340;2023-03-26T01:51:13;8.40;81.20
8591;DHT22;4333;48.322;14.340;2023-03-26T01:53:44;8.30;82.10
8591;DHT22;4333;48.322;14.340;2023-03-26T01:59:05;8.30;81.90
8591;DHT22;4333;48.322;14.340;2023-03-26T02:01:51;8.40;80.10
8591;DHT22;4333;48.322;14.340;2023-03-26T02:07:25;8.60;73.70
8591;DHT22;4333;48.322;14.340;2023-03-26T02:10:21;8.60;74.20
8591;DHT22;4333;48.322;14.340;2023-03-26T02:12:48;8.60;74.80
8591;DHT22;4333;48.322;14.340;2023-03-26T02:15:14;8.60;73.50
8591;DHT22;4333;48.322;14.340;2023-03-26T02:17:41;8.60;71.90
8591;DHT22;4333;48.322;14.340;2023-03-26T02:20:09;8.60;70.40
8591;DHT22;4333;48.322;14.340;2023-03-26T02:22:39;8.60;71.50
8591;DHT22;4333;48.322;14.340;2023-03-26T02:25:09;8.70;68.20
8591;DHT22;4333;48.322;14.340;2023-03-26T02:27:37;8.70;65.90
8591;DHT22;4333;48.322;14.340;2023-03-26T02:30:08;8.80;63.20
8591;DHT22;4333;48.322;14.340;2023-03-26T02:32:35;8.80;63.60
8591;DHT22;4333;48.322;14.340;2023-03-26T02:35:02;8.80;64.80
8591;DHT22;4333;48.322;14.340;2023-03-26T02:37:30;8.80;62.70
8591;DHT22;4333;48.322;14.340;2023-03-26T02:40:00;8.80;62.60
8591;DHT22;4333;48.322;14.340;2023-03-26T02:42:26;8.70;64.40
8591;DHT22;4333;48.322;14.340;2023-03-26T02:44:52;8.70;64.90
8591;DHT22;4333;48.322;14.340;2023-03-26T02:47:18;8.70;63.60
8591;DHT22;4333;48.322;14.340;2023-03-26T02:49:44;8.70;62.40
8591;DHT22;4333;48.322;14.340;2023-03-26T02:52:09;8.70;65.20
8591;DHT22;4333;48.322;14.340;2023-03-26T02:54:35;8.70;63.20
8591;DHT22;4333;48.322;14.340;2023-03-26T02:57:01;8.70;64.00
8591;DHT22;4333;48.322;14.340;2023-03-26T02:59:27;8.70;64.00
8591;DHT22;4333;48.322;14.340;2023-03-26T03:01:53;8.70;61.50
8591;DHT22;4333;48.322;14.340;2023-03-26T03:04:19;8.70;65.30
8591;DHT22;4333;48.322;14.340;2023-03-26T03:06:44;8.70;68.60
8591;DHT22;4333;48.322;14.340;2023-03-26T03:09:11;8.70;62.90
8591;DHT22;4333;48.322;14.340;2023-03-26T03:11:42;8.80;61.10
8591;DHT22;4333;48.322;14.340;2023-03-26T03:14:10;8.80;60.20
8591;DHT22;4333;48.322;14.340;2023-03-26T03:16:36;8.90;58.90
8591;DHT22;4333;48.322;14.340;2023-03-26T03:19:02;8.90;62.40
8591;DHT22;4333;48.322;14.340;2023-03-26T03:21:28;8.90;60.90
8591;DHT22;4333;48.322;14.340;2023-03-26T03:23:54;8.90;63.70
8591;DHT22;4333;48.322;14.340;2023-03-26T03:26:24;8.90;68.60
8591;DHT22;4333;48.322;14.340;2023-03-26T03:28:54;8.80;73.70
8591;DHT22;4333;48.322;14.340;2023-03-26T03:31:23;8.70;74.10
8591;DHT22;4333;48.322;14.340;2023-03-26T03:33:49;8.60;74.00
8591;DHT22;4333;48.322;14.340;2023-03-26T03:36:20;8.60;74.60
8591;DHT22;4333;48.322;14.340;2023-03-26T03:38:54;8.60;75.60
8591;DHT22;4333;48.322;14.340;2023-03-26T03:41:19;8.60;77.80
8591;DHT22;4333;48.322;14.340;2023-03-26T03:43:45;8.60;81.40
8591;DHT22;4333;48.322;14.340;2023-03-26T03:46:11;8.50;75.60
8591;DHT22;4333;48.322;14.340;2023-03-26T03:48:36;8.60;75.10
8591;DHT22;4333;48.322;14.340;2023-03-26T03:51:04;8.60;75.50
8591;DHT22;4333;48.322;14.340;2023-03-26T03:53:33;8.50;76.00
8591;DHT22;4333;48.322;14.340;2023-03-26T03:56:01;8.50;73.00
8591;DHT22;4333;48.322;14.340;2023-03-26T03:58:34;8.60;74.10
8591;DHT22;4333;48.322;14.340;2023-03-26T04:01:00;8.60;68.10
8591;DHT22;4333;48.322;14.340;2023-03-26T04:03:27;8.60;69.50
8591;DHT22;4333;48.322;14.340;2023-03-26T04:05:53;8.60;73.60
8591;DHT22;4333;48.322;14.340;2023-03-26T04:08:20;8.60;72.00
8591;DHT22;4333;48.322;14.340;2023-03-26T04:10:47;8.60;73.20
8591;DHT22;4333;48.322;14.340;2023-03-26T04:13:14;8.50;72.50
8591;DHT22;4333;48.322;14.340;2023-03-26T04:15:41;8.60;72.40
8591;DHT22;4333;48.322;14.340;2023-03-26T04:18:07;8.50;72.70
8591;DHT22;4333;48.322;14.340;2023-03-26T04:20:37;8.50;71.30
8591;DHT22;4333;48.322;14.340;2023-03-26T04:23:06;8.60;72.40
8591;DHT22;4333;48.322;14.340;2023-03-26T04:25:33;8.60;70.70
8591;DHT22;4333;48.322;14.340;2023-03-26T04:28:02;8.60;71.90
8591;DHT22;4333;48.322;14.340;2023-03-26T04:30:33;8.50;74.60
8591;DHT22;4333;48.322;14.340;2023-03-26T04:33:03;8.50;74.00
8591;DHT22;4333;48.322;14.340;2023-03-26T04:35:33;8.50;71.60
8591;DHT22;4333;48.322;14.340;2023-03-26T04:38:04;8.50;71.20
8591;DHT22;4333;48.322;14.340;2023-03-26T04:40:31;8.50;71.90
8591;DHT22;4333;48.322;14.340;2023-03-26T04:42:59;8.40;72.80
8591;DHT22;4333;48.322;14.340;2023-03-26T04:45:27;8.30;72.60
8591;DHT22;4333;48.322;14.340;2023-03-26T04:47:58;8.30;73.80
8591;DHT22;4333;48.322;14.340;2023-03-26T04:50:24;8.20;73.50
8591;DHT22;4333;48.322;14.340;2023-03-26T04:52:54;8.20;73.60
8591;DHT22;4333;48.322;14.340;2023-03-26T04:55:55;8.20;74.30
8591;DHT22;4333;48.322;14.340;2023-03-26T04:58:22;8.10;75.60
8591;DHT22;4333;48.322;14.340;2023-03-26T05:01:00;8.00;77.50
8591;DHT22;4333;48.322;14.340;2023-03-26T05:03:29;7.90;80.20
8591;DHT22;4333;48.322;14.340;2023-03-26T05:05:57;7.90;82.30
8591;DHT22;4333;48.322;14.340;2023-03-26T05:08:22;7.80;83.50
8591;DHT22;4333;48.322;14.340;2023-03-26T05:10:53;7.80;83.90
8591;DHT22;4333;48.322;14.340;2023-03-26T05:13:19;7.80;85.30
8591;DHT22;4333;48.322;14.340;2023-03-26T05:15:45;7.80;89.80
8591;DHT22;4333;48.322;14.340;2023-03-26T05:18:11;7.80;87.70
8591;DHT22;4333;48.322;14.340;2023-03-26T05:20:37;7.80;86.40
8591;DHT22;4333;48.322;14.340;2023-03-26T05:23:02;7.80;89.60
8591;DHT22;4333;48.322;14.340;2023-03-26T05:25:28;7.80;87.60
8591;DHT22;4333;48.322;14.340;2023-03-26T05:27:59;7.90;87.40
8591;DHT22;4333;48.322;14.340;2023-03-26T05:30:24;8.00;89.50
8591;DHT22;4333;48.322;14.340;2023-03-26T05:32:50;7.90;87.90
8591;DHT22;4333;48.322;14.340;2023-03-26T05:35:16;8.00;88.70
8591;DHT22;4333;48.322;14.340;2023-03-26T05:37:43;8.10;92.70
8591;DHT22;4333;48.322;14.340;2023-03-26T05:40:10;8.00;89.80
8591;DHT22;4333;48.322;14.340;2023-03-26T05:42:39;8.00;89.50
8591;DHT22;4333;48.322;14.340;2023-03-26T05:45:08;8.10;86.60
8591;DHT22;4333;48.322;14.340;2023-03-26T05:47:34;8.20;79.50
8591;DHT22;4333;48.322;14.340;2023-03-26T05:50:00;8.20;75.90
8591;DHT22;4333;48.322;14.340;2023-03-26T05:52:26;8.30;73.80
8591;DHT22;4333;48.322;14.340;2023-03-26T05:54:52;8.40;79.20
8591;DHT22;4333;48.322;14.340;2023-03-26T05:57:17;8.40;69.60
8591;DHT22;4333;48.322;14.340;2023-03-26T05:59:43;8.50;65.10
8591;DHT22;4333;48.322;14.340;2023-03-26T06:02:09;8.60;62.50
8591;DHT22;4333;48.322;14.340;2023-03-26T06:04:35;8.60;62.50
8591;DHT22;4333;48.322;14.340;2023-03-26T06:07:06;8.60;66.70
8591;DHT22;4333;48.322;14.340;2023-03-26T06:09:40;8.60;62.00
8591;DHT22;4333;48.322;14.340;2023-03-26T06:12:09;8.70;63.60
8591;DHT22;4333;48.322;14.340;2023-03-26T06:14:35;8.70;68.40
8591;DHT22;4333;48.322;14.340;2023-03-26T06:17:03;8.80;69.10
8591;DHT22;4333;48.322;14.340;2023-03-26T06:19:31;8.80;66.30
8591;DHT22;4333;48.322;14.340;2023-03-26T06:21:57;8.90;60.40
8591;DHT22;4333;48.322;14.340;2023-03-26T06:24:23;9.10;56.20
8591;DHT22;4333;48.322;14.340;2023-03-26T06:26:49;9.20;57.40
8591;DHT22;4333;48.322;14.340;2023-03-26T06:29:14;9.20;53.50
8591;DHT22;4333;48.322;14.340;2023-03-26T06:31:40;9.40;53.20
8591;DHT22;4333;48.322;14.340;2023-03-26T06:34:09;9.70;51.20
8591;DHT22;4333;48.322;14.340;2023-03-26T06:36:34;10.10;49.00
8591;DHT22;4333;48.322;14.340;2023-03-26T06:39:02;10.90;45.30
8591;DHT22;4333;48.322;14.340;2023-03-26T06:41:28;12.30;35.60
8591;DHT22;4333;48.322;14.340;2023-03-26T06:43:58;13.90;28.70
8591;DHT22;4333;48.322;14.340;2023-03-26T06:46:24;15.20;18.40
8591;DHT22;4333;48.322;14.340;2023-03-26T06:48:50;16.10;2.40
8591;DHT22;4333;48.322;14.340;2023-03-26T06:51:16;17.10;1.00
8591;DHT22;4333;48.322;14.340;2023-03-26T06:53:42;17.00;1.00
8591;DHT22;4333;48.322;14.340;2023-03-26T06:56:08;16.90;1.00
8591;DHT22;4333;48.322;14.340;2023-03-26T06:58:34;16.20;1.00
8591;DHT22;4333;48.322;14.340;2023-03-26T07:01:00;17.60;1.00
8591;DHT22;4333;48.322;14.340;2023-03-26T07:03:25;19.20;1.00
8591;DHT22;4333;48.322;14.340;2023-03-26T07:05:51;18.40;1.00
8591;DHT22;4333;48.322;14.340;2023-03-26T07:08:17;17.40;1.00
8591;DHT22;4333;48.322;14.340;2023-03-26T07:10:42;16.00;1.00
8591;DHT22;4333;48.322;14.340;2023-03-26T07:13:08;14.10;1.00
8591;DHT22;4333;48.322;14.340;2023-03-26T07:15:36;13.30;1.00
8591;DHT22;4333;48.322;14.340;2023-03-26T07:18:02;13.30;1.00
8591;DHT22;4333;48.322;14.340;2023-03-26T07:20:29;13.40;1.00
8591;DHT22;4333;48.322;14.340;2023-03-26T07:22:55;13.40;1.00
8591;DHT22;4333;48.322;14.340;2023-03-26T07:25:21;13.40;1.00
8591;DHT22;4333;48.322;14.340;2023-03-26T07:33:29;12.90;1.00
8591;DHT22;4333;48.322;14.340;2023-03-26T07:36:07;12.00;1.00
8591;DHT22;4333;48.322;14.340;2023-03-26T07:44:35;10.70;11.80
8591;DHT22;4333;48.322;14.340;2023-03-26T07:49:54;10.90;14.00
8591;DHT22;4333;48.322;14.340;2023-03-26T07:52:22;10.90;14.60
8591;DHT22;4333;48.322;14.340;2023-03-26T07:54:51;10.70;13.80
8591;DHT22;4333;48.322;14.340;2023-03-26T08:00:35;10.70;14.60
8591;DHT22;4333;48.322;14.340;2023-03-26T08:06:15;11.60;14.20
8591;DHT22;4333;48.322;14.340;2023-03-26T08:14:08;12.20;10.30
8591;DHT22;4333;48.322;14.340;2023-03-26T08:21:36;12.30;9.10
8591;DHT22;4333;48.322;14.340;2023-03-26T08:30:28;12.80;10.90
8591;DHT22;4333;48.322;14.340;2023-03-26T08:35:38;14.20;2.50
8591;DHT22;4333;48.322;14.340;2023-03-26T08:38:10;14.60;1.00
8591;DHT22;4333;48.322;14.340;2023-03-26T08:43:22;14.60;1.00
8591;DHT22;4333;48.322;14.340;2023-03-26T08:53:58;12.40;3.40
8591;DHT22;4333;48.322;14.340;2023-03-26T09:36:31;14.00;1.00
8591;DHT22;4333;48.322;14.340;2023-03-26T09:50:34;15.00;1.00
8591;DHT22;4333;48.322;14.340;2023-03-26T10:10:37;13.70;1.00
8591;DHT22;4333;48.322;14.340;2023-03-26T10:13:34;14.10;1.00
8591;DHT22;4333;48.322;14.340;2023-03-26T10:38:59;14.30;1.00
8591;DHT22;4333;48.322;14.340;2023-03-26T10:51:59;13.50;1.00
8591;DHT22;4333;48.322;14.340;2023-03-26T11:06:02;14.40;1.00
8591;DHT22;4333;48.322;14.340;2023-03-26T11:08:49;14.30;1.00
8591;DHT22;4333;48.322;14.340;2023-03-26T11:32:11;15.10;1.00
8591;DHT22;4333;48.322;14.340;2023-03-26T11:37:45;15.20;1.00
8591;DHT22;4333;48.322;14.340;2023-03-26T11:40:36;15.20;1.00
8591;DHT22;4333;48.322;14.340;2023-03-26T11:43:06;15.30;1.00
8591;DHT22;4333;48.322;14.340;2023-03-26T11:45:34;15.20;1.00
8591;DHT22;4333;48.322;14.340;2023-03-26T11:48:29;15.10;1.00
8591;DHT22;4333;48.322;14.340;2023-03-26T11:51:01;14.90;1.00
8591;DHT22;4333;48.322;14.340;2023-03-26T11:53:34;14.80;1.00
8591;DHT22;4333;48.322;14.340;2023-03-26T11:56:03;14.70;1.00
8591;DHT22;4333;48.322;14.340;2023-03-26T11:59:00;14.60;1.00
8591;DHT22;4333;48.322;14.340;2023-03-26T12:01:51;14.40;1.00
8591;DHT22;4333;48.322;14.340;2023-03-26T12:04:35;14.20;1.00
8591;DHT22;4333;48.322;14.340;2023-03-26T12:07:16;14.10;1.00
8591;DHT22;4333;48.322;14.340;2023-03-26T12:09:57;14.00;1.00
8591;DHT22;4333;48.322;14.340;2023-03-26T12:12:28;13.80;1.00
8591;DHT22;4333;48.322;14.340;2023-03-26T12:14:55;13.80;1.00
8591;DHT22;4333;48.322;14.340;2023-03-26T12:17:30;13.60;1.00
8591;DHT22;4333;48.322;14.340;2023-03-26T12:19:56;13.60;1.00
8591;DHT22;4333;48.322;14.340;2023-03-26T12:22:37;13.50;1.00
8591;DHT22;4333;48.322;14.340;2023-03-26T12:28:03;13.60;1.00
8591;DHT22;4333;48.322;14.340;2023-03-26T12:30:36;13.80;1.00
8591;DHT22;4333;48.322;14.340;2023-03-26T12:33:17;13.90;1.00
8591;DHT22;4333;48.322;14.340;2023-03-26T12:35:44;14.00;1.00
8591;DHT22;4333;48.322;14.340;2023-03-26T12:38:14;13.90;1.00
8591;DHT22;4333;48.322;14.340;2023-03-26T12:40:41;13.70;1.00
8591;DHT22;4333;48.322;14.340;2023-03-26T12:43:24;13.80;1.00
8591;DHT22;4333;48.322;14.340;2023-03-26T12:45:56;13.70;1.00
8591;DHT22;4333;48.322;14.340;2023-03-26T12:48:24;13.70;1.00
8591;DHT22;4333;48.322;14.340;2023-03-26T12:53:54;13.50;1.00
8591;DHT22;4333;48.322;14.340;2023-03-26T13:16:01;13.40;1.00
8591;DHT22;4333;48.322;14.340;2023-03-26T13:21:38;13.40;1.00
8591;DHT22;4333;48.322;14.340;2023-03-26T13:32:33;13.60;1.00
8591;DHT22;4333;48.322;14.340;2023-03-26T13:35:21;13.50;1.00
8591;DHT22;4333;48.322;14.340;2023-03-26T13:46:33;13.20;1.00
8591;DHT22;4333;48.322;14.340;2023-03-26T13:48:32;13.20;1.00
8591;DHT22;4333;48.322;14.340;2023-03-26T13:51:12;12.90;1.00
8591;DHT22;4333;48.322;14.340;2023-03-26T13:53:46;12.60;1.00
8591;DHT22;4333;48.322;14.340;2023-03-26T13:56:17;12.60;1.00
8591;DHT22;4333;48.322;14.340;2023-03-26T13:58:59;12.50;1.00
8591;DHT22;4333;48.322;14.340;2023-03-26T14:01:31;12.30;1.50
8591;DHT22;4333;48.322;14.340;2023-03-26T14:04:26;12.10;7.30
8591;DHT22;4333;48.322;14.340;2023-03-26T14:07:16;12.00;6.90
8591;DHT22;4333;48.322;14.340;2023-03-26T14:15:05;11.60;26.00
8591;DHT22;4333;48.322;14.340;2023-03-26T14:26:05;11.50;50.60
8591;DHT22;4333;48.322;14.340;2023-03-26T14:28:50;11.40;48.80
8591;DHT22;4333;48.322;14.340;2023-03-26T14:54:26;11.50;52.10
8591;DHT22;4333;48.322;14.340;2023-03-26T15:14:02;11.90;49.80
8591;DHT22;4333;48.322;14.340;2023-03-26T15:24:49;11.60;48.10
8591;DHT22;4333;48.322;14.340;2023-03-26T15:39:53;11.70;39.60
8591;DHT22;4333;48.322;14.340;2023-03-26T15:43:05;11.70;39.40
8591;DHT22;4333;48.322;14.340;2023-03-26T15:58:49;11.30;40.90
8591;DHT22;4333;48.322;14.340;2023-03-26T16:04:28;11.40;44.20
8591;DHT22;4333;48.322;14.340;2023-03-26T16:07:09;11.50;44.40
8591;DHT22;4333;48.322;14.340;2023-03-26T16:15:37;11.30;40.60
8591;DHT22;4333;48.322;14.340;2023-03-26T16:36:46;11.10;45.60
8591;DHT22;4333;48.322;14.340;2023-03-26T16:39:39;11.10;47.10
8591;DHT22;4333;48.322;14.340;2023-03-26T16:47:40;11.00;47.50
8591;DHT22;4333;48.322;14.340;2023-03-26T16:50:25;11.00;48.00
8591;DHT22;4333;48.322;14.340;2023-03-26T16:56:10;10.90;48.00
8591;DHT22;4333;48.322;14.340;2023-03-26T17:04:26;10.90;50.10
8591;DHT22;4333;48.322;14.340;2023-03-26T17:07:28;10.90;51.80
8591;DHT22;4333;48.322;14.340;2023-03-26T17:10:14;10.80;51.60
8591;DHT22;4333;48.322;14.340;2023-03-26T17:12:57;10.80;52.70
8591;DHT22;4333;48.322;14.340;2023-03-26T17:18:48;10.80;50.40
8591;DHT22;4333;48.322;14.340;2023-03-26T17:26:52;10.70;46.70
8591;DHT22;4333;48.322;14.340;2023-03-26T17:32:09;10.70;43.80
8591;DHT22;4333;48.322;14.340;2023-03-26T17:42:27;10.60;41.30
8591;DHT22;4333;48.322;14.340;2023-03-26T17:50:21;10.50;39.10
8591;DHT22;4333;48.322;14.340;2023-03-26T17:53:15;10.50;39.90
8591;DHT22;4333;48.322;14.340;2023-03-26T17:55:42;10.50;41.50
8591;DHT22;4333;48.322;14.340;2023-03-26T17:58:39;10.40;42.50
8591;DHT22;4333;48.322;14.340;2023-03-26T18:04:00;10.40;42.50
8591;DHT22;4333;48.322;14.340;2023-03-26T18:11:53;10.30;45.40
8591;DHT22;4333;48.322;14.340;2023-03-26T18:17:17;10.20;45.50
8591;DHT22;4333;48.322;14.340;2023-03-26T18:19:51;10.10;46.30
8591;DHT22;4333;48.322;14.340;2023-03-26T18:22:28;10.00;49.60
8591;DHT22;4333;48.322;14.340;2023-03-26T18:24:59;9.80;52.80
8591;DHT22;4333;48.322;14.340;2023-03-26T18:27:32;9.70;54.00
8591;DHT22;4333;48.322;14.340;2023-03-26T18:30:08;9.60;54.40
8591;DHT22;4333;48.322;14.340;2023-03-26T18:32:49;9.60;53.80
8591;DHT22;4333;48.322;14.340;2023-03-26T18:35:16;9.60;54.50
8591;DHT22;4333;48.322;14.340;2023-03-26T18:37:45;9.60;57.00
8591;DHT22;4333;48.322;14.340;2023-03-26T18:40:14;9.60;56.90
8591;DHT22;4333;48.322;14.340;2023-03-26T18:45:32;9.60;57.10
8591;DHT22;4333;48.322;14.340;2023-03-26T18:48:20;9.50;59.50
8591;DHT22;4333;48.322;14.340;2023-03-26T18:50:58;9.30;66.20
8591;DHT22;4333;48.322;14.340;2023-03-26T18:53:39;9.30;71.50
8591;DHT22;4333;48.322;14.340;2023-03-26T18:58:56;9.40;66.80
8591;DHT22;4333;48.322;14.340;2023-03-26T19:01:24;9.50;63.90
8591;DHT22;4333;48.322;14.340;2023-03-26T19:03:58;9.60;64.80
8591;DHT22;4333;48.322;14.340;2023-03-26T19:06:29;9.60;65.30
8591;DHT22;4333;48.322;14.340;2023-03-26T19:09:01;9.60;63.50
8591;DHT22;4333;48.322;14.340;2023-03-26T19:11:31;9.60;65.30
8591;DHT22;4333;48.322;14.340;2023-03-26T19:14:05;9.50;64.30
8591;DHT22;4333;48.322;14.340;2023-03-26T19:16:33;9.50;62.70
8591;DHT22;4333;48.322;14.340;2023-03-26T19:19:05;9.40;63.60
8591;DHT22;4333;48.322;14.340;2023-03-26T19:21:33;9.40;64.40
8591;DHT22;4333;48.322;14.340;2023-03-26T19:24:02;9.30;64.30
8591;DHT22;4333;48.322;14.340;2023-03-26T19:26:28;9.30;64.40
8591;DHT22;4333;48.322;14.340;2023-03-26T19:28:55;9.30;66.90
8591;DHT22;4333;48.322;14.340;2023-03-26T19:31:33;9.30;64.20
8591;DHT22;4333;48.322;14.340;2023-03-26T19:34:01;9.40;65.80
8591;DHT22;4333;48.322;14.340;2023-03-26T19:36:31;9.40;64.20
8591;DHT22;4333;48.322;14.340;2023-03-26T19:41:34;9.30;71.00
8591;DHT22;4333;48.322;14.340;2023-03-26T19:44:15;9.30;66.70
8591;DHT22;4333;48.322;14.340;2023-03-26T19:46:44;9.30;65.30
8591;DHT22;4333;48.322;14.340;2023-03-26T19:49:27;9.30;72.50
8591;DHT22;4333;48.322;14.340;2023-03-26T19:52:03;9.20;71.80
8591;DHT22;4333;48.322;14.340;2023-03-26T19:54:29;9.20;69.90
8591;DHT22;4333;48.322;14.340;2023-03-26T19:56:55;9.10;71.80
8591;DHT22;4333;48.322;14.340;2023-03-26T19:59:25;9.20;76.60
8591;DHT22;4333;48.322;14.340;2023-03-26T20:01:50;9.30;73.20
8591;DHT22;4333;48.322;14.340;2023-03-26T20:04:18;9.30;70.30
8591;DHT22;4333;48.322;14.340;2023-03-26T20:06:44;9.30;69.60
8591;DHT22;4333;48.322;14.340;2023-03-26T20:09:15;9.30;68.20
8591;DHT22;4333;48.322;14.340;2023-03-26T20:11:43;9.20;68.00
8591;DHT22;4333;48.322;14.340;2023-03-26T20:14:16;9.30;67.30
8591;DHT22;4333;48.322;14.340;2023-03-26T20:16:42;9.20;66.20
8591;DHT22;4333;48.322;14.340;2023-03-26T20:19:10;9.20;66.50
8591;DHT22;4333;48.322;14.340;2023-03-26T20:21:37;9.20;66.00
8591;DHT22;4333;48.322;14.340;2023-03-26T20:24:11;9.20;66.90
8591;DHT22;4333;48.322;14.340;2023-03-26T20:26:37;9.10;66.70
8591;DHT22;4333;48.322;14.340;2023-03-26T20:29:04;9.10;69.70
8591;DHT22;4333;48.322;14.340;2023-03-26T20:31:30;9.10;68.60
8591;DHT22;4333;48.322;14.340;2023-03-26T20:33:56;9.10;68.00
8591;DHT22;4333;48.322;14.340;2023-03-26T20:36:24;9.10;69.60
8591;DHT22;4333;48.322;14.340;2023-03-26T20:38:51;9.10;70.40
8591;DHT22;4333;48.322;14.340;2023-03-26T20:41:21;9.10;72.50
8591;DHT22;4333;48.322;14.340;2023-03-26T20:43:50;9.00;75.20
8591;DHT22;4333;48.322;14.340;2023-03-26T20:46:23;9.00;76.10
8591;DHT22;4333;48.322;14.340;2023-03-26T20:48:50;8.90;76.10
8591;DHT22;4333;48.322;14.340;2023-03-26T20:51:17;8.80;79.30
8591;DHT22;4333;48.322;14.340;2023-03-26T20:53:45;8.80;84.30
8591;DHT22;4333;48.322;14.340;2023-03-26T20:56:23;8.70;88.60
8591;DHT22;4333;48.322;14.340;2023-03-26T20:58:49;8.70;93.70
8591;DHT22;4333;48.322;14.340;2023-03-26T21:01:21;8.80;90.30
8591;DHT22;4333;48.322;14.340;2023-03-26T21:03:47;8.90;86.60
8591;DHT22;4333;48.322;14.340;2023-03-26T21:06:17;8.90;83.40
8591;DHT22;4333;48.322;14.340;2023-03-26T21:08:43;9.00;75.70
8591;DHT22;4333;48.322;14.340;2023-03-26T21:11:23;9.10;74.70
8591;DHT22;4333;48.322;14.340;2023-03-26T21:14:00;9.10;74.20
8591;DHT22;4333;48.322;14.340;2023-03-26T21:16:31;9.20;75.40
8591;DHT22;4333;48.322;14.340;2023-03-26T21:18:57;9.20;75.60
8591;DHT22;4333;48.322;14.340;2023-03-26T21:25:03;9.30;70.10
8591;DHT22;4333;48.322;14.340;2023-03-26T21:30:10;9.30;69.10
8591;DHT22;4333;48.322;14.340;2023-03-26T21:32:42;9.30;64.50
8591;DHT22;4333;48.322;14.340;2023-03-26T21:35:10;9.30;64.50
8591;DHT22;4333;48.322;14.340;2023-03-26T21:37:42;9.40;63.50
8591;DHT22;4333;48.322;14.340;2023-03-26T21:40:14;9.30;64.70
8591;DHT22;4333;48.322;14.340;2023-03-26T21:42:49;9.40;62.50
8591;DHT22;4333;48.322;14.340;2023-03-26T21:45:19;9.40;65.00
8591;DHT22;4333;48.322;14.340;2023-03-26T21:47:57;9.40;62.10
8591;DHT22;4333;48.322;14.340;2023-03-26T21:50:29;9.40;62.40
8591;DHT22;4333;48.322;14.340;2023-03-26T21:53:03;9.40;59.40
8591;DHT22;4333;48.322;14.340;2023-03-26T21:55:35;9.40;61.70
8591;DHT22;4333;48.322;14.340;2023-03-26T21:58:11;9.30;62.10
8591;DHT22;4333;48.322;14.340;2023-03-26T22:06:31;9.30;63.80
8591;DHT22;4333;48.322;14.340;2023-03-26T22:09:01;9.20;63.40
8591;DHT22;4333;48.322;14.340;2023-03-26T22:11:33;9.20;59.20
8591;DHT22;4333;48.322;14.340;2023-03-26T22:14:05;9.10;60.20
8591;DHT22;4333;48.322;14.340;2023-03-26T22:16:35;9.10;59.30
8591;DHT22;4333;48.322;14.340;2023-03-26T22:19:06;9.10;57.80
8591;DHT22;4333;48.322;14.340;2023-03-26T22:21:32;9.10;58.00
8591;DHT22;4333;48.322;14.340;2023-03-26T22:24:00;9.00;57.30
8591;DHT22;4333;48.322;14.340;2023-03-26T22:26:30;9.00;57.70
8591;DHT22;4333;48.322;14.340;2023-03-26T22:28:58;9.00;57.80
8591;DHT22;4333;48.322;14.340;2023-03-26T22:31:27;8.90;57.00
8591;DHT22;4333;48.322;14.340;2023-03-26T22:33:59;8.90;58.40
8591;DHT22;4333;48.322;14.340;2023-03-26T22:36:25;8.80;59.40
8591;DHT22;4333;48.322;14.340;2023-03-26T22:38:57;8.80;58.30
8591;DHT22;4333;48.322;14.340;2023-03-26T22:41:25;8.80;58.10
8591;DHT22;4333;48.322;14.340;2023-03-26T22:43:55;8.70;59.50
8591;DHT22;4333;48.322;14.340;2023-03-26T22:46:23;8.70;60.20
8591;DHT22;4333;48.322;14.340;2023-03-26T22:48:54;8.70;61.40
8591;DHT22;4333;48.322;14.340;2023-03-26T22:51:23;8.70;63.00
8591;DHT22;4333;48.322;14.340;2023-03-26T22:53:52;8.60;62.20
8591;DHT22;4333;48.322;14.340;2023-03-26T22:56:21;8.60;61.60
8591;DHT22;4333;48.322;14.340;2023-03-26T22:58:47;8.60;61.80
8591;DHT22;4333;48.322;14.340;2023-03-26T23:01:17;8.50;63.50
8591;DHT22;4333;48.322;14.340;2023-03-26T23:03:47;8.50;63.10
8591;DHT22;4333;48.322;14.340;2023-03-26T23:06:14;8.50;63.30
8591;DHT22;4333;48.322;14.340;2023-03-26T23:08:42;8.40;64.00
8591;DHT22;4333;48.322;14.340;2023-03-26T23:11:13;8.40;65.20
8591;DHT22;4333;48.322;14.340;2023-03-26T23:13:47;8.40;67.80
8591;DHT22;4333;48.322;14.340;2023-03-26T23:16:16;8.30;70.00
8591;DHT22;4333;48.322;14.340;2023-03-26T23:18:45;8.20;72.30
8591;DHT22;4333;48.322;14.340;2023-03-26T23:21:16;8.20;74.60
8591;DHT22;4333;48.322;14.340;2023-03-26T23:23:46;8.10;75.60
8591;DHT22;4333;48.322;14.340;2023-03-26T23:26:18;8.10;80.00
8591;DHT22;4333;48.322;14.340;2023-03-26T23:28:47;8.00;83.80
8591;DHT22;4333;48.322;14.340;2023-03-26T23:31:16;8.00;87.00
8591;DHT22;4333;48.322;14.340;2023-03-26T23:33:44;7.90;90.50
8591;DHT22;4333;48.322;14.340;2023-03-26T23:36:16;7.90;92.40
8591;DHT22;4333;48.322;14.340;2023-03-26T23:38:49;7.80;93.60